Ceres, CA (95307)

3:58 AM PDT on September 01, 2015 (GMT -0700)
Central Ceres | | Change Station
CLOSE
Current Station
Personal Weather Station
Location: Ceres, CA
Elevation: 92 ft
Nearby Weather Stations

Elev 92 ft 37.60 °N, 120.96 °W | Updated 7 minutes ago

Clear
Clear
67.1 °F
Feels Like 67.1 °F
N
0.0
Wind Variable Wind from WNW
Gusts 0.0 mph

Today
High -- | Low -- °F
--% Chance of Precip.
Yesterday
High -- | Low -- °F
Precip. -- in
6:33 AM 7:33 PM
Waning Gibbous, 89% visible
Pressure 29.82 in
Visibility 10.0 miles
Clouds Clear
Dew Point 53 °F
Humidity 62%
Rainfall 0.00 in
Snow Depth Not available.
UV 0 out of 12
Pollen 8.20 out of 12
Air Quality Not available.
Flu Activity Not available.
METAR KMOD 011053Z AUTO 00000KT 10SM CLR 19/11 A2982 RMK AO2 SLP097 T01940111
Pressure 29.82 in
Visibility 10.0 miles
Clouds Clear
Dew Point 53 °F
Humidity 62%
Rainfall 0.00 in
Snow Depth Not available.
UV 0 out of 12
Pollen 8.20 out of 12
Air Quality Not available.
Flu Activity Not available.
METAR KMOD 011053Z AUTO 00000KT 10SM CLR 19/11 A2982 RMK AO2 SLP097 T01940111

10-Day Weather Forecast

×

Almanac

Astronomy

Sep. 01, 2015 Rise Set
Actual Time
Civil Twilight
Nautical Twilight
Astronomical Twilight
Moon
Length of Visible Light
Length of Day
Tomorrow will be .
, % of the Moon is Illuminated

Today's Extremes

State Highs State Lows

Community

WunderPhotos

Upload Photos

1,851,501 photos uploaded!

WunderBlogs® & News

Nearby

Air Quality

  Air Quality AQ Index Pollutant
Not available.

Snow Depth

Station Depth Elevation

Earthquake Activity

City Distance Mag. Time & Date
Minimum magnitude displayed is 2.5.

Coastal Water Temperatures

Place Temperature

Stations

Nearby Weather Stations

Station Location Temp. Windchill Dew Point Humidity Wind Precip. Elev Updated Type